sensor_id;sensor_type;location;lat;lon;timestamp;temperature;humidity
11855;DHT22;5987;53.140;8.904;2023-02-15T00:01:27;3.50;99.90
11855;DHT22;5987;53.140;8.904;2023-02-15T00:04:31;3.40;99.90
11855;DHT22;5987;53.140;8.904;2023-02-15T00:07:48;3.50;99.90
11855;DHT22;5987;53.140;8.904;2023-02-15T00:10:52;3.40;99.90
11855;DHT22;5987;53.140;8.904;2023-02-15T00:13:56;3.40;99.90
11855;DHT22;5987;53.140;8.904;2023-02-15T00:17:02;3.40;99.90
11855;DHT22;5987;53.140;8.904;2023-02-15T00:20:07;3.30;99.90
11855;DHT22;5987;53.140;8.904;2023-02-15T00:23:12;3.30;99.90
11855;DHT22;5987;53.140;8.904;2023-02-15T00:26:16;3.20;99.90
11855;DHT22;5987;53.140;8.904;2023-02-15T00:29:20;3.20;99.90
11855;DHT22;5987;53.140;8.904;2023-02-15T00:32:26;3.10;99.90
11855;DHT22;5987;53.140;8.904;2023-02-15T00:35:29;3.00;99.90
11855;DHT22;5987;53.140;8.904;2023-02-15T00:38:34;3.00;99.90
11855;DHT22;5987;53.140;8.904;2023-02-15T00:41:39;3.10;99.90
11855;DHT22;5987;53.140;8.904;2023-02-15T00:44:43;3.00;99.90
11855;DHT22;5987;53.140;8.904;2023-02-15T00:47:48;2.90;99.90
11855;DHT22;5987;53.140;8.904;2023-02-15T00:50:53;2.80;99.90
11855;DHT22;5987;53.140;8.904;2023-02-15T00:53:59;2.90;99.90
11855;DHT22;5987;53.140;8.904;2023-02-15T00:57:03;2.80;99.90
11855;DHT22;5987;53.140;8.904;2023-02-15T01:00:07;2.70;99.90
11855;DHT22;5987;53.140;8.904;2023-02-15T01:03:15;2.80;99.90
11855;DHT22;5987;53.140;8.904;2023-02-15T01:06:20;2.70;99.90
11855;DHT22;5987;53.140;8.904;2023-02-15T01:09:24;2.70;99.90
11855;DHT22;5987;53.140;8.904;2023-02-15T01:12:28;2.70;99.90
11855;DHT22;5987;53.140;8.904;2023-02-15T01:15:34;2.60;99.90
11855;DHT22;5987;53.140;8.904;2023-02-15T01:18:40;2.60;99.90
11855;DHT22;5987;53.140;8.904;2023-02-15T01:21:44;2.50;99.90
11855;DHT22;5987;53.140;8.904;2023-02-15T01:24:49;2.60;99.90
11855;DHT22;5987;53.140;8.904;2023-02-15T01:27:53;2.60;99.90
11855;DHT22;5987;53.140;8.904;2023-02-15T01:30:56;2.60;99.90
11855;DHT22;5987;53.140;8.904;2023-02-15T01:34:02;2.50;99.90
11855;DHT22;5987;53.140;8.904;2023-02-15T01:37:06;2.50;99.90
11855;DHT22;5987;53.140;8.904;2023-02-15T01:40:13;2.50;99.90
11855;DHT22;5987;53.140;8.904;2023-02-15T01:43:19;2.40;99.90
11855;DHT22;5987;53.140;8.904;2023-02-15T01:46:27;2.40;99.90
11855;DHT22;5987;53.140;8.904;2023-02-15T01:49:45;2.40;99.90
11855;DHT22;5987;53.140;8.904;2023-02-15T01:52:54;2.30;99.90
11855;DHT22;5987;53.140;8.904;2023-02-15T01:56:06;2.30;99.90
11855;DHT22;5987;53.140;8.904;2023-02-15T01:59:19;2.20;99.90
11855;DHT22;5987;53.140;8.904;2023-02-15T02:02:25;2.30;99.90
11855;DHT22;5987;53.140;8.904;2023-02-15T02:05:32;2.40;99.90
11855;DHT22;5987;53.140;8.904;2023-02-15T02:08:38;2.30;99.90
11855;DHT22;5987;53.140;8.904;2023-02-15T02:11:45;2.40;99.90
11855;DHT22;5987;53.140;8.904;2023-02-15T02:14:56;2.30;99.90
11855;DHT22;5987;53.140;8.904;2023-02-15T02:18:39;2.30;99.90
11855;DHT22;5987;53.140;8.904;2023-02-15T02:34:01;2.00;99.90
11855;DHT22;5987;53.140;8.904;2023-02-15T02:37:24;2.00;99.90
11855;DHT22;5987;53.140;8.904;2023-02-15T02:40:43;2.00;99.90
11855;DHT22;5987;53.140;8.904;2023-02-15T02:44:10;2.00;99.90
11855;DHT22;5987;53.140;8.904;2023-02-15T02:47:41;1.90;99.90
11855;DHT22;5987;53.140;8.904;2023-02-15T02:51:09;1.70;99.90
11855;DHT22;5987;53.140;8.904;2023-02-15T02:54:13;1.70;99.90
11855;DHT22;5987;53.140;8.904;2023-02-15T02:57:17;1.70;99.90
11855;DHT22;5987;53.140;8.904;2023-02-15T03:00:34;1.80;99.90
11855;DHT22;5987;53.140;8.904;2023-02-15T03:04:30;1.70;99.90
11855;DHT22;5987;53.140;8.904;2023-02-15T03:08:43;1.70;99.90
11855;DHT22;5987;53.140;8.904;2023-02-15T03:12:57;1.60;99.90
11855;DHT22;5987;53.140;8.904;2023-02-15T03:17:05;1.70;99.90
11855;DHT22;5987;53.140;8.904;2023-02-15T03:21:09;1.80;99.90
11855;DHT22;5987;53.140;8.904;2023-02-15T03:25:30;1.90;99.90
11855;DHT22;5987;53.140;8.904;2023-02-15T03:29:28;1.80;99.90
11855;DHT22;5987;53.140;8.904;2023-02-15T03:33:42;1.50;99.90
11855;DHT22;5987;53.140;8.904;2023-02-15T03:38:00;1.40;99.90
11855;DHT22;5987;53.140;8.904;2023-02-15T03:42:16;1.40;99.90
11855;DHT22;5987;53.140;8.904;2023-02-15T03:46:24;1.30;99.90
11855;DHT22;5987;53.140;8.904;2023-02-15T03:50:29;1.20;99.90
11855;DHT22;5987;53.140;8.904;2023-02-15T03:54:36;1.10;99.90
11855;DHT22;5987;53.140;8.904;2023-02-15T03:58:40;1.20;99.90
11855;DHT22;5987;53.140;8.904;2023-02-15T04:02:49;1.10;99.90
11855;DHT22;5987;53.140;8.904;2023-02-15T04:06:52;1.00;99.90
11855;DHT22;5987;53.140;8.904;2023-02-15T04:09:58;1.10;99.90
11855;DHT22;5987;53.140;8.904;2023-02-15T04:13:20;1.10;99.90
11855;DHT22;5987;53.140;8.904;2023-02-15T04:16:28;1.20;99.90
11855;DHT22;5987;53.140;8.904;2023-02-15T04:19:32;1.20;99.90
11855;DHT22;5987;53.140;8.904;2023-02-15T04:22:53;1.20;99.90
11855;DHT22;5987;53.140;8.904;2023-02-15T04:26:14;1.20;99.90
11855;DHT22;5987;53.140;8.904;2023-02-15T04:29:19;1.20;99.90
11855;DHT22;5987;53.140;8.904;2023-02-15T04:32:25;1.30;99.90
11855;DHT22;5987;53.140;8.904;2023-02-15T04:35:29;1.20;99.90
11855;DHT22;5987;53.140;8.904;2023-02-15T04:38:33;1.10;99.90
11855;DHT22;5987;53.140;8.904;2023-02-15T04:41:37;1.00;99.90
11855;DHT22;5987;53.140;8.904;2023-02-15T04:44:41;1.10;99.90
11855;DHT22;5987;53.140;8.904;2023-02-15T04:47:47;1.20;99.90
11855;DHT22;5987;53.140;8.904;2023-02-15T04:50:51;1.20;99.90
11855;DHT22;5987;53.140;8.904;2023-02-15T04:53:55;1.10;99.90
11855;DHT22;5987;53.140;8.904;2023-02-15T04:56:59;1.10;99.90
11855;DHT22;5987;53.140;8.904;2023-02-15T05:00:03;1.10;99.90
11855;DHT22;5987;53.140;8.904;2023-02-15T05:03:09;1.10;99.90
11855;DHT22;5987;53.140;8.904;2023-02-15T05:06:13;1.10;99.90
11855;DHT22;5987;53.140;8.904;2023-02-15T05:09:17;1.20;99.90
11855;DHT22;5987;53.140;8.904;2023-02-15T05:12:21;1.10;99.90
11855;DHT22;5987;53.140;8.904;2023-02-15T05:15:24;1.00;99.90
11855;DHT22;5987;53.140;8.904;2023-02-15T05:18:30;1.00;99.90
11855;DHT22;5987;53.140;8.904;2023-02-15T05:21:34;1.00;99.90
11855;DHT22;5987;53.140;8.904;2023-02-15T05:24:37;1.00;99.90
11855;DHT22;5987;53.140;8.904;2023-02-15T05:28:04;1.00;99.90
11855;DHT22;5987;53.140;8.904;2023-02-15T05:31:23;0.80;99.90
11855;DHT22;5987;53.140;8.904;2023-02-15T05:34:28;0.90;99.90
11855;DHT22;5987;53.140;8.904;2023-02-15T05:37:32;0.80;99.90
11855;DHT22;5987;53.140;8.904;2023-02-15T05:40:36;1.00;99.90
11855;DHT22;5987;53.140;8.904;2023-02-15T05:43:41;1.20;99.90
11855;DHT22;5987;53.140;8.904;2023-02-15T05:46:45;1.10;99.90
11855;DHT22;5987;53.140;8.904;2023-02-15T05:49:51;1.00;99.90
11855;DHT22;5987;53.140;8.904;2023-02-15T05:52:55;1.00;99.90
11855;DHT22;5987;53.140;8.904;2023-02-15T05:55:58;0.80;99.90
11855;DHT22;5987;53.140;8.904;2023-02-15T05:59:04;0.80;99.90
11855;DHT22;5987;53.140;8.904;2023-02-15T06:02:08;0.90;99.90
11855;DHT22;5987;53.140;8.904;2023-02-15T06:05:13;0.90;99.90
11855;DHT22;5987;53.140;8.904;2023-02-15T06:08:18;0.60;99.90
11855;DHT22;5987;53.140;8.904;2023-02-15T06:11:22;0.80;99.90
11855;DHT22;5987;53.140;8.904;2023-02-15T06:14:26;0.80;99.90
11855;DHT22;5987;53.140;8.904;2023-02-15T06:17:30;0.70;99.90
11855;DHT22;5987;53.140;8.904;2023-02-15T06:20:35;0.70;99.90
11855;DHT22;5987;53.140;8.904;2023-02-15T06:23:39;0.60;99.90
11855;DHT22;5987;53.140;8.904;2023-02-15T06:26:43;0.70;99.90
11855;DHT22;5987;53.140;8.904;2023-02-15T06:29:47;0.90;99.90
11855;DHT22;5987;53.140;8.904;2023-02-15T06:32:51;0.70;99.90
11855;DHT22;5987;53.140;8.904;2023-02-15T06:35:56;0.60;99.90
11855;DHT22;5987;53.140;8.904;2023-02-15T06:39:00;0.60;99.90
11855;DHT22;5987;53.140;8.904;2023-02-15T06:42:05;0.70;99.90
11855;DHT22;5987;53.140;8.904;2023-02-15T06:45:09;0.70;99.90
11855;DHT22;5987;53.140;8.904;2023-02-15T06:48:14;0.60;99.90
11855;DHT22;5987;53.140;8.904;2023-02-15T06:51:19;0.60;99.90
11855;DHT22;5987;53.140;8.904;2023-02-15T06:54:22;0.60;99.90
11855;DHT22;5987;53.140;8.904;2023-02-15T06:57:26;0.60;99.90
11855;DHT22;5987;53.140;8.904;2023-02-15T07:00:34;0.40;99.90
11855;DHT22;5987;53.140;8.904;2023-02-15T07:03:59;0.50;99.90
11855;DHT22;5987;53.140;8.904;2023-02-15T07:07:14;0.50;99.90
11855;DHT22;5987;53.140;8.904;2023-02-15T07:10:19;0.70;99.90
11855;DHT22;5987;53.140;8.904;2023-02-15T07:13:23;0.70;99.90
11855;DHT22;5987;53.140;8.904;2023-02-15T07:16:27;0.70;99.90
11855;DHT22;5987;53.140;8.904;2023-02-15T07:19:31;0.70;99.90
11855;DHT22;5987;53.140;8.904;2023-02-15T07:22:37;0.80;99.90
11855;DHT22;5987;53.140;8.904;2023-02-15T07:25:41;0.60;99.90
11855;DHT22;5987;53.140;8.904;2023-02-15T07:28:44;0.50;99.90
11855;DHT22;5987;53.140;8.904;2023-02-15T07:31:48;0.70;99.90
11855;DHT22;5987;53.140;8.904;2023-02-15T07:34:52;0.80;99.90
11855;DHT22;5987;53.140;8.904;2023-02-15T07:37:57;0.80;99.90
11855;DHT22;5987;53.140;8.904;2023-02-15T07:41:07;0.70;99.90
11855;DHT22;5987;53.140;8.904;2023-02-15T07:44:17;0.60;99.90
11855;DHT22;5987;53.140;8.904;2023-02-15T07:47:21;0.60;99.90
11855;DHT22;5987;53.140;8.904;2023-02-15T07:50:24;0.70;99.90
11855;DHT22;5987;53.140;8.904;2023-02-15T07:53:30;0.70;99.90
11855;DHT22;5987;53.140;8.904;2023-02-15T07:56:39;0.70;99.90
11855;DHT22;5987;53.140;8.904;2023-02-15T07:59:52;0.80;99.90
11855;DHT22;5987;53.140;8.904;2023-02-15T08:02:58;0.90;99.90
11855;DHT22;5987;53.140;8.904;2023-02-15T08:06:22;1.00;99.90
11855;DHT22;5987;53.140;8.904;2023-02-15T08:09:30;0.80;99.90
11855;DHT22;5987;53.140;8.904;2023-02-15T08:12:33;0.80;99.90
11855;DHT22;5987;53.140;8.904;2023-02-15T08:15:37;0.70;99.90
11855;DHT22;5987;53.140;8.904;2023-02-15T08:18:41;0.80;99.90
11855;DHT22;5987;53.140;8.904;2023-02-15T08:21:46;0.80;99.90
11855;DHT22;5987;53.140;8.904;2023-02-15T08:24:53;1.00;99.90
11855;DHT22;5987;53.140;8.904;2023-02-15T08:27:57;0.90;99.90
11855;DHT22;5987;53.140;8.904;2023-02-15T08:31:05;1.00;99.90
11855;DHT22;5987;53.140;8.904;2023-02-15T08:34:10;0.90;99.90
11855;DHT22;5987;53.140;8.904;2023-02-15T08:37:17;1.20;99.90
11855;DHT22;5987;53.140;8.904;2023-02-15T08:40:22;1.40;99.90
11855;DHT22;5987;53.140;8.904;2023-02-15T08:43:26;1.70;99.90
11855;DHT22;5987;53.140;8.904;2023-02-15T08:46:35;2.00;99.90
11855;DHT22;5987;53.140;8.904;2023-02-15T08:49:40;1.90;99.90
11855;DHT22;5987;53.140;8.904;2023-02-15T08:52:44;2.10;99.90
11855;DHT22;5987;53.140;8.904;2023-02-15T08:55:55;2.00;99.90
11855;DHT22;5987;53.140;8.904;2023-02-15T08:59:00;2.10;99.90
11855;DHT22;5987;53.140;8.904;2023-02-15T09:02:04;2.20;99.90
11855;DHT22;5987;53.140;8.904;2023-02-15T09:05:08;2.30;99.90
11855;DHT22;5987;53.140;8.904;2023-02-15T09:08:12;2.60;99.90
11855;DHT22;5987;53.140;8.904;2023-02-15T09:11:19;2.50;99.90
11855;DHT22;5987;53.140;8.904;2023-02-15T09:14:26;2.40;99.90
11855;DHT22;5987;53.140;8.904;2023-02-15T09:17:30;2.30;99.90
11855;DHT22;5987;53.140;8.904;2023-02-15T09:20:35;2.40;99.90
11855;DHT22;5987;53.140;8.904;2023-02-15T09:23:39;2.60;99.90
11855;DHT22;5987;53.140;8.904;2023-02-15T09:26:46;2.70;99.90
11855;DHT22;5987;53.140;8.904;2023-02-15T09:29:51;2.90;99.90
11855;DHT22;5987;53.140;8.904;2023-02-15T09:32:55;3.00;99.90
11855;DHT22;5987;53.140;8.904;2023-02-15T09:35:59;3.10;99.90
11855;DHT22;5987;53.140;8.904;2023-02-15T09:39:08;3.10;99.90
11855;DHT22;5987;53.140;8.904;2023-02-15T09:42:37;3.30;99.90
11855;DHT22;5987;53.140;8.904;2023-02-15T09:46:03;3.50;99.90
11855;DHT22;5987;53.140;8.904;2023-02-15T09:49:21;3.70;99.90
11855;DHT22;5987;53.140;8.904;2023-02-15T09:52:50;3.90;99.90
11855;DHT22;5987;53.140;8.904;2023-02-15T09:56:16;4.00;99.90
11855;DHT22;5987;53.140;8.904;2023-02-15T09:59:35;4.10;99.90
11855;DHT22;5987;53.140;8.904;2023-02-15T10:03:01;4.20;99.90
11855;DHT22;5987;53.140;8.904;2023-02-15T10:06:30;4.40;99.90
11855;DHT22;5987;53.140;8.904;2023-02-15T10:10:01;4.40;99.90
11855;DHT22;5987;53.140;8.904;2023-02-15T10:13:23;4.50;99.90
11855;DHT22;5987;53.140;8.904;2023-02-15T10:16:46;4.60;99.90
11855;DHT22;5987;53.140;8.904;2023-02-15T10:20:07;4.90;99.90
11855;DHT22;5987;53.140;8.904;2023-02-15T10:23:36;5.20;99.90
11855;DHT22;5987;53.140;8.904;2023-02-15T10:26:49;5.40;99.90
11855;DHT22;5987;53.140;8.904;2023-02-15T10:30:02;5.50;99.90
11855;DHT22;5987;53.140;8.904;2023-02-15T10:33:24;5.70;99.90
11855;DHT22;5987;53.140;8.904;2023-02-15T10:37:01;5.80;99.90
11855;DHT22;5987;53.140;8.904;2023-02-15T10:40:28;6.00;99.90
11855;DHT22;5987;53.140;8.904;2023-02-15T10:43:55;6.20;99.90
11855;DHT22;5987;53.140;8.904;2023-02-15T10:47:33;6.40;99.90
11855;DHT22;5987;53.140;8.904;2023-02-15T10:50:53;6.50;99.90
11855;DHT22;5987;53.140;8.904;2023-02-15T10:54:09;6.60;99.90
11855;DHT22;5987;53.140;8.904;2023-02-15T10:57:29;6.80;99.90
11855;DHT22;5987;53.140;8.904;2023-02-15T11:00:46;7.00;99.90
11855;DHT22;5987;53.140;8.904;2023-02-15T11:07:48;7.10;99.90
11855;DHT22;5987;53.140;8.904;2023-02-15T11:10:59;7.40;99.90
11855;DHT22;5987;53.140;8.904;2023-02-15T11:14:13;7.50;99.90
11855;DHT22;5987;53.140;8.904;2023-02-15T11:17:25;7.50;99.90
11855;DHT22;5987;53.140;8.904;2023-02-15T11:20:38;7.60;99.90
11855;DHT22;5987;53.140;8.904;2023-02-15T11:23:51;7.60;99.90
11855;DHT22;5987;53.140;8.904;2023-02-15T11:26:59;7.70;99.90
11855;DHT22;5987;53.140;8.904;2023-02-15T11:30:12;7.90;99.90
11855;DHT22;5987;53.140;8.904;2023-02-15T11:33:20;7.90;99.90
11855;DHT22;5987;53.140;8.904;2023-02-15T11:36:28;8.10;99.90
11855;DHT22;5987;53.140;8.904;2023-02-15T11:39:38;8.20;99.90
11855;DHT22;5987;53.140;8.904;2023-02-15T11:42:41;8.30;99.90
11855;DHT22;5987;53.140;8.904;2023-02-15T11:45:46;8.40;99.90
11855;DHT22;5987;53.140;8.904;2023-02-15T11:48:50;8.40;99.90
11855;DHT22;5987;53.140;8.904;2023-02-15T11:51:56;8.60;99.90
11855;DHT22;5987;53.140;8.904;2023-02-15T11:55:09;8.70;99.90
11855;DHT22;5987;53.140;8.904;2023-02-15T11:58:24;8.90;99.90
11855;DHT22;5987;53.140;8.904;2023-02-15T12:01:35;9.00;99.90
11855;DHT22;5987;53.140;8.904;2023-02-15T12:04:48;9.00;99.90
11855;DHT22;5987;53.140;8.904;2023-02-15T12:08:01;9.10;99.90
11855;DHT22;5987;53.140;8.904;2023-02-15T12:11:14;9.30;99.90
11855;DHT22;5987;53.140;8.904;2023-02-15T12:14:23;9.40;99.90
11855;DHT22;5987;53.140;8.904;2023-02-15T12:17:29;9.40;99.90
11855;DHT22;5987;53.140;8.904;2023-02-15T12:20:37;9.40;99.90
11855;DHT22;5987;53.140;8.904;2023-02-15T12:23:46;9.30;99.90
11855;DHT22;5987;53.140;8.904;2023-02-15T12:27:02;9.30;99.90
11855;DHT22;5987;53.140;8.904;2023-02-15T12:30:16;9.40;99.90
11855;DHT22;5987;53.140;8.904;2023-02-15T12:33:28;9.50;99.90
11855;DHT22;5987;53.140;8.904;2023-02-15T12:36:43;9.40;99.90
11855;DHT22;5987;53.140;8.904;2023-02-15T12:39:55;9.40;99.90
11855;DHT22;5987;53.140;8.904;2023-02-15T12:43:01;9.30;99.90
11855;DHT22;5987;53.140;8.904;2023-02-15T12:46:20;9.50;99.90
11855;DHT22;5987;53.140;8.904;2023-02-15T12:49:26;9.70;99.90
11855;DHT22;5987;53.140;8.904;2023-02-15T12:52:30;9.80;99.90
11855;DHT22;5987;53.140;8.904;2023-02-15T12:55:35;9.80;99.90
11855;DHT22;5987;53.140;8.904;2023-02-15T12:58:47;9.80;99.90
11855;DHT22;5987;53.140;8.904;2023-02-15T13:01:52;10.00;99.90
11855;DHT22;5987;53.140;8.904;2023-02-15T13:05:03;10.00;99.90
11855;DHT22;5987;53.140;8.904;2023-02-15T13:08:18;10.10;99.90
11855;DHT22;5987;53.140;8.904;2023-02-15T13:11:26;10.20;99.90
11855;DHT22;5987;53.140;8.904;2023-02-15T13:14:41;10.40;99.90
11855;DHT22;5987;53.140;8.904;2023-02-15T13:17:48;10.50;99.90
11855;DHT22;5987;53.140;8.904;2023-02-15T13:20:52;10.50;99.90
11855;DHT22;5987;53.140;8.904;2023-02-15T13:24:01;10.50;99.90
11855;DHT22;5987;53.140;8.904;2023-02-15T13:27:13;10.60;99.90
11855;DHT22;5987;53.140;8.904;2023-02-15T13:30:27;10.60;99.90
11855;DHT22;5987;53.140;8.904;2023-02-15T13:33:36;10.60;99.90
11855;DHT22;5987;53.140;8.904;2023-02-15T13:36:45;10.60;99.90
11855;DHT22;5987;53.140;8.904;2023-02-15T13:40:00;10.70;99.90
11855;DHT22;5987;53.140;8.904;2023-02-15T13:43:21;10.60;99.90
11855;DHT22;5987;53.140;8.904;2023-02-15T13:46:47;10.60;99.90
11855;DHT22;5987;53.140;8.904;2023-02-15T13:50:11;10.60;99.90
11855;DHT22;5987;53.140;8.904;2023-02-15T13:53:51;10.40;99.90
11855;DHT22;5987;53.140;8.904;2023-02-15T13:57:22;10.50;99.90
11855;DHT22;5987;53.140;8.904;2023-02-15T14:00:43;10.50;99.90
11855;DHT22;5987;53.140;8.904;2023-02-15T14:04:03;10.60;99.90
11855;DHT22;5987;53.140;8.904;2023-02-15T14:07:33;10.60;99.90
11855;DHT22;5987;53.140;8.904;2023-02-15T14:10:55;10.60;99.90
11855;DHT22;5987;53.140;8.904;2023-02-15T14:14:22;10.70;99.90
11855;DHT22;5987;53.140;8.904;2023-02-15T14:17:51;10.80;99.90
11855;DHT22;5987;53.140;8.904;2023-02-15T14:21:09;10.80;99.90
11855;DHT22;5987;53.140;8.904;2023-02-15T14:24:32;10.90;99.90
11855;DHT22;5987;53.140;8.904;2023-02-15T14:27:49;10.90;99.90
11855;DHT22;5987;53.140;8.904;2023-02-15T14:31:00;11.00;99.90
11855;DHT22;5987;53.140;8.904;2023-02-15T14:34:18;11.10;99.90
11855;DHT22;5987;53.140;8.904;2023-02-15T14:37:36;11.00;99.90
11855;DHT22;5987;53.140;8.904;2023-02-15T14:40:53;10.80;99.90
11855;DHT22;5987;53.140;8.904;2023-02-15T14:44:11;10.80;99.90
11855;DHT22;5987;53.140;8.904;2023-02-15T14:47:24;10.80;99.90
11855;DHT22;5987;53.140;8.904;2023-02-15T14:50:44;10.70;99.90
11855;DHT22;5987;53.140;8.904;2023-02-15T14:53:50;10.60;99.90
11855;DHT22;5987;53.140;8.904;2023-02-15T14:57:22;10.60;99.90
11855;DHT22;5987;53.140;8.904;2023-02-15T15:00:38;10.50;99.90
11855;DHT22;5987;53.140;8.904;2023-02-15T15:03:51;10.70;99.90
11855;DHT22;5987;53.140;8.904;2023-02-15T15:07:03;10.50;99.90
11855;DHT22;5987;53.140;8.904;2023-02-15T15:10:40;10.50;99.90
11855;DHT22;5987;53.140;8.904;2023-02-15T15:13:54;10.30;99.90
11855;DHT22;5987;53.140;8.904;2023-02-15T15:17:00;10.30;99.90
11855;DHT22;5987;53.140;8.904;2023-02-15T15:20:12;10.20;99.90
11855;DHT22;5987;53.140;8.904;2023-02-15T15:23:44;10.10;99.90
11855;DHT22;5987;53.140;8.904;2023-02-15T15:31:00;10.10;99.90
11855;DHT22;5987;53.140;8.904;2023-02-15T15:34:43;10.00;99.90
11855;DHT22;5987;53.140;8.904;2023-02-15T15:38:28;9.90;99.90
11855;DHT22;5987;53.140;8.904;2023-02-15T15:41:51;10.00;99.90
11855;DHT22;5987;53.140;8.904;2023-02-15T15:45:23;10.00;99.90
11855;DHT22;5987;53.140;8.904;2023-02-15T15:48:46;9.90;99.90
11855;DHT22;5987;53.140;8.904;2023-02-15T15:51:50;9.70;99.90
11855;DHT22;5987;53.140;8.904;2023-02-15T15:54:57;9.60;99.90
11855;DHT22;5987;53.140;8.904;2023-02-15T15:58:08;9.40;99.90
11855;DHT22;5987;53.140;8.904;2023-02-15T16:01:12;9.30;99.90
11855;DHT22;5987;53.140;8.904;2023-02-15T16:04:24;9.20;99.90
11855;DHT22;5987;53.140;8.904;2023-02-15T16:07:29;9.20;99.90
11855;DHT22;5987;53.140;8.904;2023-02-15T16:10:33;9.10;99.90
11855;DHT22;5987;53.140;8.904;2023-02-15T16:13:41;9.10;99.90
11855;DHT22;5987;53.140;8.904;2023-02-15T16:16:49;9.00;99.90
11855;DHT22;5987;53.140;8.904;2023-02-15T16:20:00;8.80;99.90
11855;DHT22;5987;53.140;8.904;2023-02-15T16:23:26;8.80;99.90
11855;DHT22;5987;53.140;8.904;2023-02-15T16:27:10;8.70;99.90
11855;DHT22;5987;53.140;8.904;2023-02-15T16:30:29;8.60;99.90
11855;DHT22;5987;53.140;8.904;2023-02-15T16:33:36;8.50;99.90
11855;DHT22;5987;53.140;8.904;2023-02-15T16:36:40;8.40;99.90
11855;DHT22;5987;53.140;8.904;2023-02-15T16:39:45;8.30;99.90
11855;DHT22;5987;53.140;8.904;2023-02-15T16:42:50;8.20;99.90
11855;DHT22;5987;53.140;8.904;2023-02-15T16:46:03;8.20;99.90
11855;DHT22;5987;53.140;8.904;2023-02-15T16:49:16;8.10;99.90
11855;DHT22;5987;53.140;8.904;2023-02-15T16:52:23;8.10;99.90
11855;DHT22;5987;53.140;8.904;2023-02-15T16:55:35;8.00;99.90
11855;DHT22;5987;53.140;8.904;2023-02-15T16:58:43;8.00;99.90
11855;DHT22;5987;53.140;8.904;2023-02-15T17:01:51;8.00;99.90
11855;DHT22;5987;53.140;8.904;2023-02-15T17:05:14;7.90;99.90
11855;DHT22;5987;53.140;8.904;2023-02-15T17:08:25;7.90;99.90
11855;DHT22;5987;53.140;8.904;2023-02-15T17:11:36;7.80;99.90
11855;DHT22;5987;53.140;8.904;2023-02-15T17:14:43;7.70;99.90
11855;DHT22;5987;53.140;8.904;2023-02-15T17:17:48;7.60;99.90
11855;DHT22;5987;53.140;8.904;2023-02-15T17:20:55;7.60;99.90
11855;DHT22;5987;53.140;8.904;2023-02-15T17:24:02;7.50;99.90
11855;DHT22;5987;53.140;8.904;2023-02-15T17:27:12;7.50;99.90
11855;DHT22;5987;53.140;8.904;2023-02-15T17:30:26;7.40;99.90
11855;DHT22;5987;53.140;8.904;2023-02-15T17:33:37;7.40;99.90
11855;DHT22;5987;53.140;8.904;2023-02-15T17:36:57;7.40;99.90
11855;DHT22;5987;53.140;8.904;2023-02-15T17:40:14;7.30;99.90
11855;DHT22;5987;53.140;8.904;2023-02-15T17:43:22;7.30;99.90
11855;DHT22;5987;53.140;8.904;2023-02-15T17:46:28;7.40;99.90
11855;DHT22;5987;53.140;8.904;2023-02-15T17:49:38;7.40;99.90
11855;DHT22;5987;53.140;8.904;2023-02-15T17:52:42;7.30;99.90
11855;DHT22;5987;53.140;8.904;2023-02-15T17:55:46;7.30;99.90
11855;DHT22;5987;53.140;8.904;2023-02-15T17:58:50;7.20;99.90
11855;DHT22;5987;53.140;8.904;2023-02-15T18:01:53;7.20;99.90
11855;DHT22;5987;53.140;8.904;2023-02-15T18:05:17;7.10;99.90
11855;DHT22;5987;53.140;8.904;2023-02-15T18:08:38;7.00;99.90
11855;DHT22;5987;53.140;8.904;2023-02-15T18:12:00;7.00;99.90
11855;DHT22;5987;53.140;8.904;2023-02-15T18:15:06;7.00;99.90
11855;DHT22;5987;53.140;8.904;2023-02-15T18:18:13;6.90;99.90
11855;DHT22;5987;53.140;8.904;2023-02-15T18:21:19;6.80;99.90
11855;DHT22;5987;53.140;8.904;2023-02-15T18:24:24;6.80;99.90
11855;DHT22;5987;53.140;8.904;2023-02-15T18:27:29;6.80;99.90
11855;DHT22;5987;53.140;8.904;2023-02-15T18:30:33;6.70;99.90
11855;DHT22;5987;53.140;8.904;2023-02-15T18:33:39;6.80;99.90
11855;DHT22;5987;53.140;8.904;2023-02-15T18:36:47;6.80;99.90
11855;DHT22;5987;53.140;8.904;2023-02-15T18:39:52;7.00;99.90
11855;DHT22;5987;53.140;8.904;2023-02-15T18:42:56;6.90;99.90
11855;DHT22;5987;53.140;8.904;2023-02-15T18:46:00;6.90;99.90
11855;DHT22;5987;53.140;8.904;2023-02-15T18:49:04;6.80;99.90
11855;DHT22;5987;53.140;8.904;2023-02-15T18:52:14;6.70;99.90
11855;DHT22;5987;53.140;8.904;2023-02-15T18:55:20;6.50;99.90
11855;DHT22;5987;53.140;8.904;2023-02-15T18:58:26;6.50;99.90
11855;DHT22;5987;53.140;8.904;2023-02-15T19:01:30;6.40;99.90
11855;DHT22;5987;53.140;8.904;2023-02-15T19:04:36;6.40;99.90
11855;DHT22;5987;53.140;8.904;2023-02-15T19:07:42;6.40;99.90
11855;DHT22;5987;53.140;8.904;2023-02-15T19:10:49;6.30;99.90
11855;DHT22;5987;53.140;8.904;2023-02-15T19:13:54;6.30;99.90
11855;DHT22;5987;53.140;8.904;2023-02-15T19:16:59;6.20;99.90
11855;DHT22;5987;53.140;8.904;2023-02-15T19:20:03;6.20;99.90
11855;DHT22;5987;53.140;8.904;2023-02-15T19:23:14;6.20;99.90
11855;DHT22;5987;53.140;8.904;2023-02-15T19:26:22;6.10;99.90
11855;DHT22;5987;53.140;8.904;2023-02-15T19:29:44;6.10;99.90
11855;DHT22;5987;53.140;8.904;2023-02-15T19:32:48;6.10;99.90
11855;DHT22;5987;53.140;8.904;2023-02-15T19:35:54;6.00;99.90
11855;DHT22;5987;53.140;8.904;2023-02-15T19:39:00;6.00;99.90
11855;DHT22;5987;53.140;8.904;2023-02-15T19:42:05;6.00;99.90
11855;DHT22;5987;53.140;8.904;2023-02-15T19:45:24;5.90;99.90
11855;DHT22;5987;53.140;8.904;2023-02-15T19:48:52;5.90;99.90
11855;DHT22;5987;53.140;8.904;2023-02-15T19:52:16;5.80;99.90
11855;DHT22;5987;53.140;8.904;2023-02-15T19:55:32;5.80;99.90
11855;DHT22;5987;53.140;8.904;2023-02-15T19:58:39;5.70;99.90
11855;DHT22;5987;53.140;8.904;2023-02-15T20:01:43;5.60;99.90
11855;DHT22;5987;53.140;8.904;2023-02-15T20:04:47;5.50;99.90
11855;DHT22;5987;53.140;8.904;2023-02-15T20:07:52;5.50;99.90
11855;DHT22;5987;53.140;8.904;2023-02-15T20:10:58;5.40;99.90
11855;DHT22;5987;53.140;8.904;2023-02-15T20:14:02;5.30;99.90
11855;DHT22;5987;53.140;8.904;2023-02-15T20:17:08;5.40;99.90
11855;DHT22;5987;53.140;8.904;2023-02-15T20:20:13;5.40;99.90
11855;DHT22;5987;53.140;8.904;2023-02-15T20:23:23;5.40;99.90
11855;DHT22;5987;53.140;8.904;2023-02-15T20:26:34;5.40;99.90
11855;DHT22;5987;53.140;8.904;2023-02-15T20:29:38;5.40;99.90
11855;DHT22;5987;53.140;8.904;2023-02-15T20:32:42;5.30;99.90
11855;DHT22;5987;53.140;8.904;2023-02-15T20:35:46;5.30;99.90
11855;DHT22;5987;53.140;8.904;2023-02-15T20:38:52;5.20;99.90
11855;DHT22;5987;53.140;8.904;2023-02-15T20:41:59;5.30;99.90
11855;DHT22;5987;53.140;8.904;2023-02-15T20:45:13;5.20;99.90
11855;DHT22;5987;53.140;8.904;2023-02-15T20:48:19;5.20;99.90
11855;DHT22;5987;53.140;8.904;2023-02-15T20:51:22;5.30;99.90
11855;DHT22;5987;53.140;8.904;2023-02-15T20:54:29;5.30;99.90
11855;DHT22;5987;53.140;8.904;2023-02-15T20:57:39;5.20;99.90
11855;DHT22;5987;53.140;8.904;2023-02-15T21:00:43;5.20;99.90
11855;DHT22;5987;53.140;8.904;2023-02-15T21:03:47;5.20;99.90
11855;DHT22;5987;53.140;8.904;2023-02-15T21:06:52;5.20;99.90
11855;DHT22;5987;53.140;8.904;2023-02-15T21:09:56;5.20;99.90
11855;DHT22;5987;53.140;8.904;2023-02-15T21:13:02;5.30;99.90
11855;DHT22;5987;53.140;8.904;2023-02-15T21:16:08;5.30;99.90